Time;durP1;ratioP1;P1;durP2;ratioP2;P2;SDS_P1;SDS_P2;PMS_P1;PMS_P2;Temp;Humidity;BMP_temperature;BMP_pressure;BME280_temperature;BME280_humidity;BME280_pressure;Samples;Min_cycle;Max_cycle;Signal;HPM_P1;HPM_P2
2023/08/25 00:01:16;;;;;;;9.87;7.77;;;24.90;99.90;;;;;;4940749;28;20467;-74
2023/08/25 00:03:42;;;;;;;9.07;8.17;;;24.80;99.90;;;;;;4941430;28;20526;-74
2023/08/25 00:06:07;;;;;;;11.53;8.50;;;24.80;99.90;;;;;;4944712;28;20529;-75
2023/08/25 00:08:33;;;;;;;9.93;8.40;;;24.80;99.90;;;;;;4939629;28;20191;-75
2023/08/25 00:10:58;;;;;;;9.50;7.60;;;24.80;99.90;;;;;;4945358;28;20211;-74
2023/08/25 00:13:24;;;;;;;8.67;7.87;;;24.80;99.90;;;;;;4944591;28;20278;-74
2023/08/25 00:15:50;;;;;;;8.10;7.40;;;24.90;99.90;;;;;;4943464;28;20606;-74
2023/08/25 00:18:16;;;;;;;12.90;8.20;;;24.90;99.90;;;;;;4941497;28;20201;-74
2023/08/25 00:20:42;;;;;;;8.73;7.83;;;24.90;99.90;;;;;;4940354;28;20207;-74
2023/08/25 00:23:07;;;;;;;8.60;7.80;;;24.90;99.90;;;;;;4942359;28;20442;-74
2023/08/25 00:25:33;;;;;;;7.97;7.17;;;24.90;99.90;;;;;;4944521;28;20573;-74
2023/08/25 00:28:00;;;;;;;8.23;6.73;;;24.90;99.90;;;;;;4944769;28;20246;-74
2023/08/25 00:30:26;;;;;;;8.77;7.50;;;24.90;99.90;;;;;;4939470;28;20203;-74
2023/08/25 00:32:52;;;;;;;7.93;7.13;;;24.90;99.90;;;;;;4959458;28;20442;-74
2023/08/25 00:35:18;;;;;;;7.70;6.90;;;24.90;99.90;;;;;;4941708;28;20214;-74
2023/08/25 00:37:43;;;;;;;8.10;7.30;;;24.80;99.90;;;;;;4940635;28;20203;-74
2023/08/25 00:40:10;;;;;;;7.17;6.47;;;24.80;99.90;;;;;;4940841;28;20202;-74
2023/08/25 00:42:36;;;;;;;6.97;6.40;;;24.80;99.90;;;;;;4939621;28;20219;-74
2023/08/25 00:45:01;;;;;;;7.20;6.50;;;24.70;99.90;;;;;;4941735;28;20449;-73
2023/08/25 00:47:27;;;;;;;8.30;6.07;;;24.70;99.90;;;;;;4939180;28;20622;-74
2023/08/25 00:49:54;;;;;;;14.57;5.93;;;24.60;99.90;;;;;;4941165;28;20179;-74
2023/08/25 00:52:21;;;;;;;6.83;6.20;;;24.60;99.90;;;;;;4937718;28;20439;-74
2023/08/25 00:54:50;;;;;;;12.50;5.87;;;24.60;99.90;;;;;;4938388;28;20540;-74
2023/08/25 00:57:16;;;;;;;6.37;5.77;;;24.50;99.90;;;;;;4941233;28;23129;-74
2023/08/25 00:59:42;;;;;;;7.37;5.97;;;24.50;99.90;;;;;;4941733;28;20514;-74
2023/08/25 01:02:08;;;;;;;9.20;6.50;;;24.50;99.90;;;;;;4943185;28;20243;-74
2023/08/25 01:04:34;;;;;;;6.73;5.77;;;24.50;99.90;;;;;;4944613;28;20298;-75
2023/08/25 01:07:00;;;;;;;6.83;6.23;;;24.50;99.90;;;;;;4941581;28;20650;-74
2023/08/25 01:09:26;;;;;;;6.33;5.80;;;24.50;99.90;;;;;;4942619;28;20509;-75
2023/08/25 01:12:08;;;;;;;9.47;6.03;;;24.40;99.90;;;;;;4941863;28;20458;-75
2023/08/25 01:15:04;;;;;;;10.07;5.53;;;24.40;99.90;;;;;;4937151;28;21094;-75
2023/08/25 01:17:58;;;;;;;11.10;6.07;;;24.40;99.90;;;;;;4941036;28;20454;-75
2023/08/25 01:20:26;;;;;;;6.20;5.60;;;24.30;99.90;;;;;;4928831;28;20471;-75
2023/08/25 01:23:18;;;;;;;6.63;5.60;;;24.40;99.90;;;;;;4939772;28;20446;-75
2023/08/25 01:25:48;;;;;;;5.93;5.40;;;24.30;99.90;;;;;;4942491;28;21025;-74
2023/08/25 01:28:13;;;;;;;6.30;5.70;;;24.40;99.90;;;;;;4939633;28;20435;-74
2023/08/25 01:30:40;;;;;;;6.00;5.43;;;24.30;99.90;;;;;;4942420;28;20454;-75
2023/08/25 01:33:06;;;;;;;7.50;5.10;;;24.30;99.90;;;;;;4937617;28;20803;-75
2023/08/25 01:35:40;;;;;;;5.23;4.73;;;24.20;99.90;;;;;;4939238;28;20837;-75
2023/08/25 01:38:16;;;;;;;8.67;4.90;;;24.20;99.90;;;;;;4940613;28;20187;-75
2023/08/25 01:40:52;;;;;;;8.27;5.13;;;24.20;99.90;;;;;;4936904;28;20474;-75
2023/08/25 01:43:22;;;;;;;8.73;5.50;;;24.20;99.90;;;;;;4940377;28;20434;-75
2023/08/25 01:45:49;;;;;;;7.43;5.47;;;24.20;99.90;;;;;;4940666;28;20473;-75
2023/08/25 01:48:16;;;;;;;8.33;5.10;;;24.20;99.90;;;;;;4939021;28;20447;-75
2023/08/25 01:50:43;;;;;;;5.10;4.60;;;24.20;99.90;;;;;;4941615;28;20446;-75
2023/08/25 01:53:09;;;;;;;8.17;5.10;;;24.10;99.90;;;;;;4943447;28;20442;-75
2023/08/25 01:55:35;;;;;;;5.30;4.80;;;24.00;99.90;;;;;;4948559;28;20488;-75
2023/08/25 01:58:02;;;;;;;7.30;5.00;;;24.00;99.90;;;;;;4943385;28;20202;-75
2023/08/25 02:00:28;;;;;;;8.60;4.67;;;23.90;99.90;;;;;;4945263;28;20466;-75
2023/08/25 02:02:54;;;;;;;5.73;5.00;;;24.00;99.90;;;;;;4941683;28;20441;-75
2023/08/25 02:05:21;;;;;;;7.33;4.70;;;23.90;99.90;;;;;;4949554;28;20195;-75
2023/08/25 02:07:47;;;;;;;7.20;4.90;;;23.80;99.90;;;;;;4944891;28;20415;-75
2023/08/25 02:10:12;;;;;;;13.10;5.10;;;23.80;99.90;;;;;;4948149;28;20435;-75
2023/08/25 02:12:38;;;;;;;7.60;5.40;;;23.80;99.90;;;;;;4946896;28;20198;-75
2023/08/25 02:15:04;;;;;;;5.90;5.00;;;23.80;99.90;;;;;;4951480;28;20245;-74
2023/08/25 02:17:29;;;;;;;6.30;5.10;;;23.80;99.90;;;;;;4955806;28;20187;-75
2023/08/25 02:19:55;;;;;;;5.83;4.93;;;23.80;99.90;;;;;;4966323;28;20481;-74
2023/08/25 02:22:21;;;;;;;6.33;5.30;;;23.80;99.90;;;;;;4969912;28;20191;-74
2023/08/25 02:24:46;;;;;;;6.13;4.67;;;23.80;99.90;;;;;;4960922;28;20207;-74
2023/08/25 02:27:12;;;;;;;5.30;4.80;;;23.90;99.90;;;;;;4942723;28;20259;-75
2023/08/25 02:29:37;;;;;;;7.40;5.00;;;23.90;99.90;;;;;;4945446;28;20176;-75
2023/08/25 02:32:03;;;;;;;5.40;4.90;;;23.80;99.90;;;;;;4939401;28;20195;-75
2023/08/25 02:34:29;;;;;;;6.30;4.77;;;23.90;99.90;;;;;;4937693;28;20844;-75
2023/08/25 02:36:55;;;;;;;8.47;4.60;;;23.80;99.90;;;;;;4942390;28;20183;-75
2023/08/25 02:39:20;;;;;;;11.47;5.10;;;23.80;99.90;;;;;;4940545;28;20857;-75
2023/08/25 02:41:46;;;;;;;6.13;4.60;;;23.90;99.90;;;;;;4940662;28;20599;-75
2023/08/25 02:44:11;;;;;;;6.00;4.53;;;23.90;99.90;;;;;;4942460;28;20305;-75
2023/08/25 02:46:37;;;;;;;7.90;4.70;;;23.80;99.90;;;;;;4942581;28;21702;-75
2023/08/25 02:49:03;;;;;;;7.90;4.40;;;23.80;99.90;;;;;;4956213;28;20207;-75
2023/08/25 02:51:29;;;;;;;6.33;4.50;;;23.60;99.90;;;;;;4942784;28;20480;-75
2023/08/25 02:53:54;;;;;;;8.90;4.77;;;23.70;99.90;;;;;;4936236;28;20188;-75
2023/08/25 02:56:20;;;;;;;5.37;4.50;;;23.70;99.90;;;;;;4943160;28;20230;-74
2023/08/25 02:58:45;;;;;;;7.57;5.07;;;23.80;99.90;;;;;;4944567;28;20195;-74
2023/08/25 03:01:12;;;;;;;6.40;4.47;;;23.80;99.90;;;;;;4943045;28;20298;-74
2023/08/25 03:03:38;;;;;;;4.70;4.30;;;23.80;99.90;;;;;;4939495;28;20223;-74
2023/08/25 03:06:03;;;;;;;9.00;4.37;;;23.80;99.90;;;;;;4941603;28;20493;-74
2023/08/25 03:08:29;;;;;;;6.37;4.20;;;23.80;99.90;;;;;;4941136;28;20184;-74
2023/08/25 03:10:55;;;;;;;4.83;4.40;;;23.80;99.90;;;;;;4937084;28;20299;-74
2023/08/25 03:13:20;;;;;;;5.30;4.80;;;23.80;99.90;;;;;;4941594;28;20829;-74
2023/08/25 03:15:48;;;;;;;5.80;4.60;;;23.80;99.90;;;;;;4941295;28;20206;-74
2023/08/25 03:18:14;;;;;;;8.60;4.83;;;23.80;99.90;;;;;;4945052;28;20668;-74
2023/08/25 03:20:40;;;;;;;6.80;4.90;;;23.80;99.90;;;;;;4944265;28;20470;-74
2023/08/25 03:23:05;;;;;;;6.60;5.20;;;23.80;99.90;;;;;;4942201;28;20493;-74
2023/08/25 03:25:31;;;;;;;9.10;5.10;;;23.80;99.90;;;;;;4938782;28;20214;-75
2023/08/25 03:27:57;;;;;;;5.90;4.90;;;23.90;99.90;;;;;;4939806;28;20626;-75
2023/08/25 03:30:23;;;;;;;11.80;4.67;;;23.80;99.90;;;;;;4938547;28;20222;-74
2023/08/25 03:32:48;;;;;;;6.93;4.50;;;23.80;99.90;;;;;;4941416;28;20266;-74
2023/08/25 03:35:14;;;;;;;6.43;4.33;;;23.80;99.90;;;;;;4941949;28;20350;-74
2023/08/25 03:37:39;;;;;;;8.47;5.10;;;23.90;99.90;;;;;;4943234;28;20206;-74
2023/08/25 03:40:05;;;;;;;6.70;4.23;;;23.90;99.90;;;;;;4946537;28;20195;-74
2023/08/25 03:42:31;;;;;;;7.20;5.10;;;23.90;99.90;;;;;;4942192;28;20188;-74
2023/08/25 03:44:56;;;;;;;6.63;4.70;;;23.80;99.90;;;;;;4940175;28;20479;-74
2023/08/25 03:47:22;;;;;;;5.83;4.60;;;23.80;99.90;;;;;;4941315;28;20612;-74
2023/08/25 03:49:48;;;;;;;15.50;4.80;;;23.80;99.90;;;;;;4937068;28;20191;-74
2023/08/25 03:52:14;;;;;;;5.77;5.13;;;23.80;99.90;;;;;;4940018;28;20187;-74
2023/08/25 03:54:39;;;;;;;6.53;5.00;;;23.90;99.90;;;;;;4941077;28;20545;-75
2023/08/25 03:57:07;;;;;;;5.30;4.80;;;23.80;99.90;;;;;;4940263;28;20792;-75
2023/08/25 03:59:33;;;;;;;7.80;5.00;;;23.80;99.90;;;;;;4938427;28;20277;-74
2023/08/25 04:02:01;;;;;;;5.70;5.13;;;23.80;99.90;;;;;;4940487;28;20545;-75
2023/08/25 04:04:27;;;;;;;5.77;5.07;;;23.80;99.90;;;;;;4940300;28;20451;-74
2023/08/25 04:06:53;;;;;;;5.33;4.83;;;23.80;99.90;;;;;;4945710;28;20442;-74
2023/08/25 04:09:19;;;;;;;6.47;5.43;;;23.80;99.90;;;;;;4941235;28;20438;-74
2023/08/25 04:11:45;;;;;;;7.10;5.10;;;23.80;99.90;;;;;;4939672;28;20454;-74
2023/08/25 04:14:11;;;;;;;8.47;5.37;;;23.80;99.90;;;;;;4939938;28;20616;-74
2023/08/25 04:16:36;;;;;;;6.60;5.47;;;23.80;99.90;;;;;;4944998;28;20233;-73
2023/08/25 04:19:02;;;;;;;6.53;5.80;;;23.80;99.90;;;;;;4936953;28;20438;-74
2023/08/25 04:21:28;;;;;;;5.60;5.10;;;23.80;99.90;;;;;;4943123;28;20214;-74
2023/08/25 04:23:54;;;;;;;7.37;6.03;;;23.80;99.90;;;;;;4939584;28;20453;-74
2023/08/25 04:26:19;;;;;;;7.37;5.20;;;23.80;99.90;;;;;;4943016;28;20551;-74
2023/08/25 04:28:45;;;;;;;5.63;5.00;;;23.80;99.90;;;;;;4939652;28;20551;-74
2023/08/25 04:31:10;;;;;;;6.50;5.80;;;23.80;99.90;;;;;;4940256;28;20199;-74
2023/08/25 04:33:36;;;;;;;5.73;5.00;;;23.80;99.90;;;;;;4937747;28;20194;-74
2023/08/25 04:36:03;;;;;;;5.97;5.30;;;23.80;99.90;;;;;;4941608;28;20215;-74
2023/08/25 04:38:28;;;;;;;7.13;5.33;;;23.80;99.90;;;;;;4942624;28;20191;-74
2023/08/25 04:40:54;;;;;;;7.23;5.70;;;23.80;99.90;;;;;;4941005;28;20478;-74
2023/08/25 04:43:19;;;;;;;5.63;4.90;;;23.80;99.90;;;;;;4942582;28;20200;-74
2023/08/25 04:45:45;;;;;;;5.63;5.13;;;23.80;99.90;;;;;;4943889;28;20211;-74
2023/08/25 04:48:10;;;;;;;6.10;5.50;;;23.80;99.90;;;;;;4939872;28;20210;-74
2023/08/25 04:50:36;;;;;;;7.20;5.27;;;23.90;99.90;;;;;;4938857;28;20196;-74
2023/08/25 04:53:02;;;;;;;7.73;5.10;;;23.90;99.90;;;;;;4939314;28;20330;-74
2023/08/25 04:55:28;;;;;;;7.47;5.90;;;23.90;99.90;;;;;;4940538;28;20373;-73
2023/08/25 04:57:55;;;;;;;7.30;4.97;;;24.00;99.90;;;;;;4941184;28;20522;-74
2023/08/25 05:00:21;;;;;;;7.80;5.70;;;24.00;99.90;;;;;;4938090;28;20188;-74
2023/08/25 05:02:48;;;;;;;5.07;4.57;;;24.00;99.90;;;;;;4939274;28;20493;-74
2023/08/25 05:05:16;;;;;;;5.87;4.80;;;24.00;99.90;;;;;;4941124;28;20211;-74
2023/08/25 05:07:42;;;;;;;7.07;5.53;;;24.00;99.90;;;;;;4942554;28;20941;-74
2023/08/25 05:10:09;;;;;;;6.33;5.00;;;24.00;99.90;;;;;;4940569;28;20447;-74
2023/08/25 05:12:34;;;;;;;6.20;5.53;;;24.00;99.90;;;;;;4943410;28;20202;-74
2023/08/25 05:15:00;;;;;;;6.50;5.50;;;24.10;99.90;;;;;;4939265;28;20459;-74
2023/08/25 05:17:26;;;;;;;9.73;5.60;;;24.20;99.90;;;;;;4939270;28;20241;-74
2023/08/25 05:19:52;;;;;;;6.03;5.43;;;24.20;99.90;;;;;;4941362;28;20224;-74
2023/08/25 05:22:18;;;;;;;9.23;6.03;;;24.20;99.90;;;;;;4939229;28;20210;-74
2023/08/25 05:24:44;;;;;;;6.57;5.50;;;24.00;99.90;;;;;;4942590;28;20508;-75
2023/08/25 05:27:09;;;;;;;8.03;6.17;;;23.60;99.90;;;;;;4933581;28;20195;-74
2023/08/25 05:29:35;;;;;;;9.83;5.40;;;23.60;99.90;;;;;;4941288;28;20191;-73
2023/08/25 05:32:01;;;;;;;7.33;5.17;;;23.70;99.90;;;;;;4938606;28;20205;-74
2023/08/25 05:34:28;;;;;;;6.73;4.87;;;23.70;99.90;;;;;;4938881;28;20626;-74
2023/08/25 05:36:53;;;;;;;6.07;5.47;;;23.80;99.90;;;;;;4939525;28;20397;-74
2023/08/25 05:39:21;;;;;;;7.07;5.13;;;23.80;99.90;;;;;;4939181;28;20542;-74
2023/08/25 05:41:47;;;;;;;9.53;5.40;;;23.90;99.90;;;;;;4938982;28;20222;-74
2023/08/25 05:44:12;;;;;;;6.53;5.40;;;23.90;99.90;;;;;;4937507;28;20464;-75
2023/08/25 05:46:39;;;;;;;7.30;5.70;;;23.80;99.90;;;;;;4939086;28;20259;-75
2023/08/25 05:49:05;;;;;;;7.50;5.83;;;23.90;99.90;;;;;;4944161;28;20672;-74
2023/08/25 05:51:31;;;;;;;6.37;5.63;;;24.00;99.90;;;;;;4943402;28;20447;-74
2023/08/25 05:53:56;;;;;;;6.93;6.23;;;24.00;99.90;;;;;;4938583;28;20183;-74
2023/08/25 05:56:22;;;;;;;7.43;5.40;;;23.90;99.90;;;;;;4935215;28;20541;-74
2023/08/25 05:58:47;;;;;;;8.83;5.63;;;23.90;99.90;;;;;;4937357;28;20191;-73
2023/08/25 06:01:13;;;;;;;7.90;6.17;;;23.70;99.90;;;;;;4935630;28;20207;-73
2023/08/25 06:03:39;;;;;;;8.07;6.13;;;23.40;99.90;;;;;;4935573;28;20687;-72
2023/08/25 06:06:04;;;;;;;10.43;6.80;;;23.10;99.90;;;;;;4935686;28;20294;-73
2023/08/25 06:08:30;;;;;;;17.97;7.70;;;23.00;99.90;;;;;;4937426;28;20248;-73
2023/08/25 06:10:56;;;;;;;8.97;6.27;;;22.90;99.90;;;;;;4939531;28;20199;-73
2023/08/25 06:13:22;;;;;;;6.73;5.80;;;22.70;99.90;;;;;;4940810;28;20452;-73
2023/08/25 06:15:48;;;;;;;11.07;7.03;;;22.70;99.90;;;;;;4935840;28;20227;-73
2023/08/25 06:18:15;;;;;;;9.57;5.67;;;22.80;99.90;;;;;;4939907;28;20214;-73
2023/08/25 06:20:40;;;;;;;9.93;6.30;;;22.90;99.90;;;;;;4943130;28;20581;-73
2023/08/25 06:23:06;;;;;;;8.00;7.20;;;23.00;99.90;;;;;;4938483;28;20655;-73
2023/08/25 06:25:32;;;;;;;7.97;6.50;;;23.00;99.90;;;;;;4942443;28;20278;-73
2023/08/25 06:27:59;;;;;;;8.37;6.10;;;23.00;99.90;;;;;;4939373;28;20192;-72
2023/08/25 06:30:26;;;;;;;7.57;6.00;;;23.10;99.90;;;;;;4941460;28;20192;-72
2023/08/25 06:32:52;;;;;;;7.80;6.60;;;23.00;99.90;;;;;;4940386;28;20440;-73
2023/08/25 06:35:18;;;;;;;10.47;6.80;;;23.10;99.90;;;;;;4937106;28;20864;-73
2023/08/25 06:37:44;;;;;;;10.33;7.40;;;23.10;99.90;;;;;;4937638;28;20446;-73
2023/08/25 06:40:10;;;;;;;8.77;6.87;;;23.10;99.90;;;;;;4959089;28;20486;-73
2023/08/25 06:42:37;;;;;;;6.63;5.60;;;23.10;99.90;;;;;;4946408;28;20179;-73
2023/08/25 06:45:09;;;;;;;13.60;6.20;;;23.10;99.90;;;;;;4947911;28;20454;-73
2023/08/25 06:47:35;;;;;;;8.17;5.53;;;23.10;99.90;;;;;;4945366;28;20439;-73
2023/08/25 06:50:02;;;;;;;8.40;6.23;;;23.10;99.90;;;;;;4945154;28;20441;-73
2023/08/25 06:52:28;;;;;;;6.97;5.80;;;23.20;99.90;;;;;;4941393;28;20964;-74
2023/08/25 06:54:53;;;;;;;6.70;5.27;;;23.20;99.90;;;;;;4943441;28;20577;-74
2023/08/25 06:57:19;;;;;;;7.43;5.03;;;23.20;99.90;;;;;;4936456;28;20208;-73
2023/08/25 06:59:44;;;;;;;6.03;4.73;;;23.20;99.90;;;;;;4941090;28;20191;-74
2023/08/25 07:02:10;;;;;;;8.33;5.90;;;23.10;99.90;;;;;;4944657;28;20219;-74
2023/08/25 07:04:35;;;;;;;7.87;4.57;;;23.10;99.90;;;;;;4941049;28;20290;-74
2023/08/25 07:07:01;;;;;;;5.03;4.53;;;23.00;99.90;;;;;;4940678;28;20183;-74
2023/08/25 07:09:28;;;;;;;5.60;4.30;;;23.00;99.90;;;;;;4933837;28;20191;-74
2023/08/25 07:11:53;;;;;;;6.23;4.87;;;23.00;99.90;;;;;;4946718;28;20193;-74
2023/08/25 07:14:19;;;;;;;5.10;4.07;;;23.10;99.90;;;;;;4941180;28;20553;-73
2023/08/25 07:16:45;;;;;;;7.60;4.60;;;23.10;99.90;;;;;;4941833;28;20723;-73
2023/08/25 07:19:11;;;;;;;6.80;4.97;;;23.10;99.90;;;;;;4933887;28;20195;-74
2023/08/25 07:21:37;;;;;;;6.83;4.70;;;23.10;99.90;;;;;;4936868;28;20305;-74
2023/08/25 07:24:03;;;;;;;7.60;4.90;;;23.10;99.90;;;;;;4937299;28;20704;-74
2023/08/25 07:26:29;;;;;;;5.10;4.47;;;23.10;99.90;;;;;;4936309;28;20442;-74
2023/08/25 07:28:54;;;;;;;11.83;4.27;;;23.00;99.90;;;;;;4941244;28;20445;-74
2023/08/25 07:31:20;;;;;;;4.57;4.13;;;23.10;99.90;;;;;;4942718;28;20207;-74
2023/08/25 07:33:45;;;;;;;7.27;4.33;;;23.20;99.90;;;;;;4939038;28;20226;-71
2023/08/25 07:36:11;;;;;;;6.20;4.87;;;23.10;99.90;;;;;;4939024;28;20251;-71
2023/08/25 07:38:37;;;;;;;5.93;4.20;;;23.00;99.90;;;;;;4938077;28;20219;-71
2023/08/25 07:41:03;;;;;;;5.40;3.77;;;23.00;99.90;;;;;;4941923;28;20890;-71
2023/08/25 07:43:28;;;;;;;4.23;3.80;;;22.90;99.90;;;;;;4940664;28;20270;-72
2023/08/25 07:45:54;;;;;;;6.13;4.20;;;23.00;99.90;;;;;;4940550;28;20203;-70
2023/08/25 07:48:20;;;;;;;6.00;4.00;;;23.00;99.90;;;;;;4941053;28;20217;-70
2023/08/25 07:50:46;;;;;;;5.40;3.60;;;23.00;99.90;;;;;;4937120;28;20439;-71
2023/08/25 07:53:15;;;;;;;4.60;3.20;;;23.10;99.90;;;;;;4941947;28;20456;-71
2023/08/25 07:55:41;;;;;;;6.33;3.17;;;23.10;99.90;;;;;;4937300;28;20233;-71
2023/08/25 07:58:09;;;;;;;4.20;2.80;;;23.10;99.90;;;;;;4940865;28;20497;-70
2023/08/25 08:00:35;;;;;;;4.17;2.90;;;23.10;99.90;;;;;;4942615;28;20565;-71
2023/08/25 08:03:03;;;;;;;10.20;4.00;;;23.20;99.90;;;;;;4939746;28;20518;-71
2023/08/25 08:05:28;;;;;;;4.73;3.33;;;23.30;99.90;;;;;;4939534;28;20467;-71
2023/08/25 08:07:55;;;;;;;5.87;3.90;;;23.30;99.90;;;;;;4940729;28;20438;-72
2023/08/25 08:10:21;;;;;;;3.70;3.30;;;23.20;99.90;;;;;;4935801;28;20490;-71
2023/08/25 08:12:46;;;;;;;4.90;3.50;;;23.20;99.90;;;;;;4937534;28;20270;-71
2023/08/25 08:15:13;;;;;;;8.10;3.23;;;23.20;99.90;;;;;;4940051;28;20203;-73
2023/08/25 08:17:39;;;;;;;6.07;3.67;;;23.20;99.90;;;;;;4935083;28;20192;-72
2023/08/25 08:20:07;;;;;;;6.20;4.50;;;23.30;99.90;;;;;;4943540;28;20427;-73
2023/08/25 08:22:32;;;;;;;13.73;5.10;;;23.30;99.90;;;;;;4942658;28;20471;-73
2023/08/25 08:24:58;;;;;;;9.30;5.40;;;23.40;99.90;;;;;;4941628;28;20477;-73
2023/08/25 08:27:25;;;;;;;10.37;4.47;;;23.50;99.90;;;;;;4938482;28;20190;-74
2023/08/25 08:29:51;;;;;;;7.83;5.20;;;23.50;99.90;;;;;;4942625;28;20185;-74
2023/08/25 08:32:17;;;;;;;8.13;5.03;;;23.60;99.90;;;;;;4937752;28;20459;-73
2023/08/25 08:34:43;;;;;;;8.60;4.60;;;23.70;99.90;;;;;;4938444;28;20454;-72
2023/08/25 08:37:09;;;;;;;6.37;4.27;;;23.70;99.90;;;;;;4939929;28;20706;-74
2023/08/25 08:39:37;;;;;;;7.27;4.00;;;23.80;99.90;;;;;;4940215;28;20446;-74
2023/08/25 08:42:03;;;;;;;7.00;3.57;;;23.90;99.90;;;;;;4939340;28;20254;-73
2023/08/25 08:44:30;;;;;;;5.63;4.00;;;24.00;99.90;;;;;;4938991;28;20473;-74
2023/08/25 08:46:57;;;;;;;4.83;4.30;;;24.00;99.90;;;;;;4939745;28;20848;-73
2023/08/25 08:49:26;;;;;;;4.77;4.10;;;24.00;99.90;;;;;;4940504;28;20439;-74
2023/08/25 08:51:53;;;;;;;5.30;3.83;;;24.10;99.90;;;;;;4939970;28;20446;-74
2023/08/25 08:54:19;;;;;;;5.20;4.17;;;24.10;99.90;;;;;;4936890;28;20956;-74
2023/08/25 08:56:46;;;;;;;6.17;3.80;;;24.10;99.90;;;;;;4942627;28;20439;-72
2023/08/25 08:59:12;;;;;;;5.07;3.97;;;24.20;99.90;;;;;;4939839;28;20443;-73
2023/08/25 09:01:38;;;;;;;7.70;3.67;;;24.10;99.90;;;;;;4940043;28;20477;-73
2023/08/25 09:04:08;;;;;;;5.60;4.17;;;24.10;99.90;;;;;;4936613;28;20730;-73
2023/08/25 09:06:36;;;;;;;4.67;4.17;;;24.20;99.90;;;;;;4943785;28;20439;-73
2023/08/25 09:09:05;;;;;;;6.10;3.77;;;24.20;99.90;;;;;;4940150;28;20443;-73
2023/08/25 09:11:32;;;;;;;4.73;3.30;;;24.30;99.90;;;;;;4939144;28;20522;-73
2023/08/25 09:14:03;;;;;;;4.70;3.40;;;24.30;99.90;;;;;;4941262;28;20469;-73
2023/08/25 09:16:34;;;;;;;5.70;3.60;;;24.30;99.90;;;;;;4943686;28;20521;-76
2023/08/25 09:19:04;;;;;;;7.00;3.60;;;24.30;99.90;;;;;;4935376;28;21086;-75
2023/08/25 09:21:31;;;;;;;6.10;3.67;;;24.30;99.90;;;;;;4933311;28;20862;-77
2023/08/25 09:24:02;;;;;;;5.90;4.10;;;24.40;99.90;;;;;;4938908;28;20454;-75
2023/08/25 09:26:35;;;;;;;4.60;3.40;;;24.40;99.90;;;;;;4953401;28;20672;-71
2023/08/25 09:29:00;;;;;;;4.73;3.97;;;24.50;99.90;;;;;;4939463;28;20450;-71
2023/08/25 09:31:28;;;;;;;5.10;3.60;;;24.50;99.90;;;;;;4934743;28;20442;-75
2023/08/25 09:34:05;;;;;;;8.00;4.17;;;24.60;99.90;;;;;;4935609;28;20200;-74
2023/08/25 09:36:31;;;;;;;12.60;4.63;;;24.50;99.90;;;;;;4936543;28;20504;-72
2023/08/25 09:38:57;;;;;;;6.83;4.43;;;24.60;99.90;;;;;;4943217;28;20442;-74
2023/08/25 09:41:28;;;;;;;5.07;3.63;;;24.50;99.90;;;;;;4939056;28;20513;-75
2023/08/25 09:43:58;;;;;;;8.53;3.40;;;24.50;99.90;;;;;;4935707;28;20446;-75
2023/08/25 09:46:31;;;;;;;5.83;4.40;;;24.50;99.90;;;;;;4933519;28;20439;-74
2023/08/25 09:49:04;;;;;;;5.30;4.07;;;24.30;99.90;;;;;;4935078;28;20803;-74
2023/08/25 09:51:43;;;;;;;5.97;3.60;;;24.30;99.90;;;;;;4937371;28;20876;-73
2023/08/25 09:54:13;;;;;;;4.53;4.10;;;24.20;99.90;;;;;;4938964;28;20541;-74
2023/08/25 09:56:41;;;;;;;5.47;4.10;;;24.10;99.90;;;;;;4940297;28;20496;-74
2023/08/25 09:59:08;;;;;;;5.60;4.07;;;24.10;99.90;;;;;;4935619;28;20543;-75
2023/08/25 10:01:35;;;;;;;4.40;3.40;;;24.00;99.90;;;;;;4937985;28;20553;-74
2023/08/25 10:04:06;;;;;;;5.50;5.00;;;24.10;99.90;;;;;;4940491;28;20439;-73
2023/08/25 10:06:35;;;;;;;8.37;5.40;;;24.10;99.90;;;;;;4938674;28;20474;-74
2023/08/25 10:09:02;;;;;;;4.77;3.30;;;24.10;99.90;;;;;;4937211;28;20489;-73
2023/08/25 10:11:29;;;;;;;8.30;4.30;;;24.10;99.90;;;;;;4937445;28;20770;-73
2023/08/25 10:13:56;;;;;;;5.67;5.10;;;24.00;99.90;;;;;;4945017;28;20478;-73
2023/08/25 10:16:25;;;;;;;5.93;4.60;;;24.00;99.90;;;;;;4941320;28;20949;-75
2023/08/25 10:18:54;;;;;;;5.20;4.43;;;24.00;99.90;;;;;;4948256;28;20454;-73
2023/08/25 10:21:20;;;;;;;5.33;3.90;;;24.10;99.90;;;;;;4937020;28;20466;-74
2023/08/25 10:23:48;;;;;;;6.20;3.70;;;24.20;99.90;;;;;;4943140;28;20449;-71
2023/08/25 10:26:14;;;;;;;7.83;4.20;;;24.20;99.90;;;;;;4947104;28;20462;-72
2023/08/25 10:28:40;;;;;;;6.43;3.60;;;24.30;99.90;;;;;;4944919;28;20434;-71
2023/08/25 10:31:06;;;;;;;4.03;3.43;;;24.30;99.90;;;;;;4945201;28;20443;-71
2023/08/25 10:33:51;;;;;;;5.63;4.37;;;24.20;99.90;;;;;;4945041;28;20469;-72
2023/08/25 10:36:21;;;;;;;4.40;3.57;;;24.20;99.90;;;;;;4947369;28;20458;-73
2023/08/25 10:38:59;;;;;;;5.40;4.20;;;24.30;99.90;;;;;;4944517;28;20485;-74
2023/08/25 10:41:25;;;;;;;3.90;3.60;;;24.40;99.90;;;;;;4962002;28;20840;-75
2023/08/25 10:43:52;;;;;;;6.67;4.00;;;24.50;99.90;;;;;;4940882;28;20422;-75
2023/08/25 10:46:20;;;;;;;5.10;3.57;;;24.50;99.90;;;;;;4944745;28;20259;-75
2023/08/25 10:48:48;;;;;;;5.03;4.13;;;24.60;99.90;;;;;;4940779;28;20921;-73
2023/08/25 10:51:20;;;;;;;4.00;3.60;;;24.70;99.90;;;;;;4948155;28;21100;-73
2023/08/25 10:53:53;;;;;;;4.50;3.97;;;24.80;99.90;;;;;;4947239;28;20450;-75
2023/08/25 10:56:20;;;;;;;4.33;3.87;;;24.90;99.90;;;;;;4943403;28;20537;-75
2023/08/25 10:59:09;;;;;;;4.53;3.97;;;24.90;99.90;;;;;;4945340;28;20446;-75
2023/08/25 11:01:37;;;;;;;4.27;3.50;;;25.00;99.90;;;;;;4944999;28;20473;-77
2023/08/25 11:04:11;;;;;;;4.93;4.13;;;25.20;99.90;;;;;;4944838;28;21203;-77
2023/08/25 11:06:44;;;;;;;9.50;3.80;;;25.20;99.90;;;;;;4939960;28;20407;-74
2023/08/25 11:09:32;;;;;;;5.63;4.10;;;25.30;99.90;;;;;;4941437;28;20434;-74
2023/08/25 11:12:04;;;;;;;5.33;4.27;;;25.50;99.90;;;;;;4944033;28;20417;-74
2023/08/25 11:14:35;;;;;;;5.80;3.60;;;25.60;99.90;;;;;;4938389;28;20577;-74
2023/08/25 11:17:04;;;;;;;5.43;3.73;;;25.70;99.90;;;;;;4941853;28;20873;-70
2023/08/25 11:19:32;;;;;;;8.00;4.00;;;25.80;99.90;;;;;;4940078;28;20474;-74
2023/08/25 11:22:02;;;;;;;5.90;3.67;;;25.90;99.90;;;;;;4943009;28;21145;-74
2023/08/25 11:24:29;;;;;;;4.47;3.67;;;25.90;99.90;;;;;;4939180;28;20469;-74
2023/08/25 11:27:03;;;;;;;6.63;3.97;;;26.10;99.90;;;;;;4942018;28;20920;-73
2023/08/25 11:29:29;;;;;;;3.80;3.40;;;26.10;99.90;;;;;;4943577;28;21360;-71
2023/08/25 11:31:54;;;;;;;4.00;3.60;;;26.10;99.90;;;;;;4949500;28;20438;-72
2023/08/25 11:34:21;;;;;;;6.00;4.23;;;26.00;99.90;;;;;;4940538;28;20203;-71
2023/08/25 11:36:47;;;;;;;5.17;3.70;;;26.10;99.90;;;;;;4944024;28;20270;-70
2023/08/25 11:39:18;;;;;;;7.57;3.80;;;26.00;99.90;;;;;;4942436;28;20538;-72
2023/08/25 11:41:43;;;;;;;4.83;4.13;;;26.00;99.90;;;;;;4943647;28;20576;-72
2023/08/25 11:44:10;;;;;;;7.53;3.63;;;26.10;99.90;;;;;;4945622;28;20442;-72
2023/08/25 11:46:36;;;;;;;8.13;5.33;;;26.10;99.90;;;;;;4945802;28;20235;-72
2023/08/25 11:49:02;;;;;;;4.37;3.60;;;26.00;99.90;;;;;;4939668;28;20435;-72
2023/08/25 11:51:28;;;;;;;4.80;3.90;;;25.90;99.90;;;;;;4960436;28;20451;-72
2023/08/25 11:53:53;;;;;;;6.70;4.20;;;25.90;99.90;;;;;;4942148;28;20217;-73
2023/08/25 11:56:19;;;;;;;4.10;3.70;;;25.90;99.90;;;;;;4944753;28;20687;-72
2023/08/25 11:58:49;;;;;;;4.07;3.50;;;25.80;99.90;;;;;;4945184;28;20553;-72
2023/08/25 12:01:14;;;;;;;5.10;3.53;;;25.70;99.90;;;;;;4942824;28;20222;-72
2023/08/25 12:03:43;;;;;;;5.13;3.37;;;25.70;99.90;;;;;;4944239;28;20872;-71
2023/08/25 12:06:11;;;;;;;5.43;3.70;;;25.70;99.90;;;;;;4939947;28;20570;-71
2023/08/25 12:08:41;;;;;;;5.60;4.10;;;25.70;99.90;;;;;;4942439;28;21724;-73
2023/08/25 12:11:10;;;;;;;5.67;3.60;;;25.80;99.90;;;;;;4943630;28;20430;-72
2023/08/25 12:13:41;;;;;;;4.17;3.37;;;25.90;99.90;;;;;;4944072;28;20482;-73
2023/08/25 12:16:06;;;;;;;5.93;3.70;;;26.00;99.90;;;;;;4943012;28;20534;-73
2023/08/25 12:18:37;;;;;;;6.50;3.97;;;26.10;99.90;;;;;;4941562;28;20541;-74
2023/08/25 12:21:07;;;;;;;4.57;3.77;;;26.30;99.90;;;;;;4942665;28;20210;-74
2023/08/25 12:23:40;;;;;;;8.00;3.43;;;26.30;99.90;;;;;;4945723;28;20447;-73
2023/08/25 12:26:11;;;;;;;6.13;4.00;;;26.40;99.90;;;;;;4940525;28;20506;-73
2023/08/25 12:28:38;;;;;;;5.50;5.00;;;26.30;99.90;;;;;;4940544;28;20441;-72
2023/08/25 12:31:04;;;;;;;4.63;3.87;;;26.40;99.90;;;;;;4943146;28;20439;-75
2023/08/25 12:33:30;;;;;;;9.20;4.20;;;26.40;99.90;;;;;;4942357;28;20467;-73
2023/08/25 12:35:57;;;;;;;8.00;4.17;;;26.60;99.90;;;;;;4938722;28;20238;-75
2023/08/25 12:38:23;;;;;;;7.97;4.40;;;26.60;99.90;;;;;;4941057;28;21114;-72
2023/08/25 12:40:49;;;;;;;4.60;3.97;;;26.70;99.90;;;;;;4938492;28;20521;-71
2023/08/25 12:43:15;;;;;;;4.77;3.60;;;26.70;99.90;;;;;;4941824;28;20194;-72
2023/08/25 12:45:40;;;;;;;7.20;4.30;;;26.60;99.90;;;;;;4946193;28;20705;-69